Time;durP1;ratioP1;P1;durP2;ratioP2;P2;SDS_P1;SDS_P2;PMS_P1;PMS_P2;Temp;Humidity;BMP_temperature;BMP_pressure;BME280_temperature;BME280_humidity;BME280_pressure;Samples;Min_cycle;Max_cycle;Signal;HPM_P1;HPM_P2
2023/01/08 00:00:50;;;;;;;0.98;0.50;;;;;;;20.09;38.24;100242.13;16124690;19;130173;-52
2023/01/08 00:06:17;;;;;;;;;;;;;;;20.02;37.96;100252.69;16121182;19;129016;-48
2023/01/08 00:11:38;;;;;;;1.50;0.60;;;;;;;20.03;37.94;100227.41;16122439;19;129754;-50
2023/01/08 00:17:01;;;;;;;2.30;0.40;;;;;;;19.98;38.35;100214.31;16122081;19;129389;-49
2023/01/08 00:22:23;;;;;;;1.85;0.30;;;;;;;19.95;38.41;100209.28;16120838;19;129380;-47
2023/01/08 00:27:45;;;;;;;1.02;0.50;;;;;;;19.95;38.02;100202.91;16122513;19;130104;-49
2023/01/08 00:33:07;;;;;;;0.75;0.40;;;;;;;19.91;38.24;100208.19;16121623;19;134726;-49
2023/01/08 00:38:29;;;;;;;1.67;0.50;;;;;;;19.89;38.08;100202.06;16121604;19;129904;-52
2023/01/08 00:43:50;;;;;;;1.45;0.40;;;;;;;19.85;38.48;100200.94;16122898;19;129472;-49
2023/01/08 00:49:12;;;;;;;1.35;0.40;;;;;;;19.84;38.12;100218.69;16120723;19;133075;-47
2023/01/08 00:54:34;;;;;;;1.65;0.65;;;;;;;19.81;38.08;100230.38;16118759;19;129469;-49
2023/01/08 00:59:55;;;;;;;0.50;0.40;;;;;;;19.79;38.22;100229.81;16121323;19;129587;-49
2023/01/08 01:05:17;;;;;;;0.98;0.50;;;;;;;19.75;38.16;100232.28;16120707;19;130060;-51
2023/01/08 01:10:39;;;;;;;1.75;0.50;;;;;;;19.74;38.29;100233.41;16119078;19;129302;-48
2023/01/08 01:16:02;;;;;;;0.50;0.30;;;;;;;19.71;38.36;100235.84;16128192;19;130109;-49
2023/01/08 01:21:29;;;;;;;1.83;0.40;;;;;;;19.68;38.63;100227.00;16131957;19;129338;-52
2023/01/08 01:26:51;;;;;;;1.13;0.50;;;;;;;19.66;38.64;100223.63;16133188;19;129613;-51
2023/01/08 01:32:13;;;;;;;0.90;0.47;;;;;;;19.63;38.31;100207.53;16131662;19;130247;-50
2023/01/08 01:37:35;;;;;;;1.25;0.43;;;;;;;19.61;38.53;100192.25;16131577;19;129830;-53
2023/01/08 01:42:56;;;;;;;0.50;0.40;;;;;;;19.58;38.38;100181.69;16131825;19;130362;-49
2023/01/08 01:48:18;;;;;;;2.42;0.63;;;;;;;19.56;38.46;100184.75;16131476;19;129725;-50
2023/01/08 01:53:40;;;;;;;0.63;0.30;;;;;;;19.55;38.36;100176.69;16130240;19;129667;-50
2023/01/08 01:59:03;;;;;;;0.50;0.30;;;;;;;19.52;38.23;100180.84;16131097;19;130590;-50
2023/01/08 02:04:25;;;;;;;0.25;0.22;;;;;;;19.50;38.67;100186.66;16127541;19;129501;-51
2023/01/08 02:09:51;;;;;;;1.00;0.30;;;;;;;19.49;38.47;100184.16;16129875;19;129045;-49
2023/01/08 02:15:42;;;;;;;0.43;0.30;;;;;;;19.47;38.42;100181.66;16127732;19;129740;-49
2023/01/08 02:21:09;;;;;;;0.85;0.40;;;;;;;19.47;38.53;100180.81;16129660;19;129756;-53
2023/01/08 02:26:33;;;;;;;0.68;0.40;;;;;;;19.44;38.63;100182.19;16126705;19;129532;-51
2023/01/08 02:31:55;;;;;;;0.70;0.30;;;;;;;19.43;38.69;100176.94;16127246;19;130092;-49
2023/01/08 02:37:17;;;;;;;1.25;0.40;;;;;;;19.42;38.29;100166.94;16127813;19;130772;-49
2023/01/08 02:42:46;;;;;;;1.38;0.30;;;;;;;19.40;38.72;100163.59;16128142;19;129498;-47
2023/01/08 02:48:12;;;;;;;0.98;0.30;;;;;;;19.37;38.52;100157.47;16126796;19;129677;-51
2023/01/08 02:53:41;;;;;;;0.77;0.43;;;;;;;19.37;38.33;100159.44;16126223;19;130821;-47
2023/01/08 02:59:06;;;;;;;0.50;0.30;;;;;;;19.33;38.62;100153.56;16126917;19;129906;-51
2023/01/08 03:04:33;;;;;;;0.50;0.20;;;;;;;19.32;38.52;100143.56;16126189;19;129982;-49
2023/01/08 03:09:55;;;;;;;1.88;0.40;;;;;;;19.31;38.41;100144.69;16126913;19;131204;-50
2023/01/08 03:15:41;;;;;;;1.50;0.20;;;;;;;19.31;38.72;100133.59;16125992;19;129145;-49
2023/01/08 03:21:05;;;;;;;0.60;0.30;;;;;;;19.29;38.59;100152.44;16125258;19;128968;-53
2023/01/08 03:26:30;;;;;;;0.40;0.30;;;;;;;19.28;38.85;100141.59;16124418;19;130742;-53
2023/01/08 03:31:58;;;;;;;0.93;0.25;;;;;;;19.27;38.49;100138.00;16126897;19;136287;-49
2023/01/08 03:37:25;;;;;;;1.00;0.45;;;;;;;19.25;38.80;100118.03;16126071;19;129685;-49
2023/01/08 03:42:47;;;;;;;0.85;0.20;;;;;;;19.22;38.89;100138.81;16126234;19;134950;-50
2023/01/08 03:48:10;;;;;;;0.30;0.20;;;;;;;19.21;38.43;100148.25;16126059;19;129617;-50
2023/01/08 03:53:31;;;;;;;0.20;0.20;;;;;;;19.20;38.73;100137.41;16123366;19;129653;-50
2023/01/08 03:58:53;;;;;;;1.05;0.32;;;;;;;19.19;38.77;100127.41;16124932;19;130807;-49
2023/01/08 04:04:15;;;;;;;0.70;0.30;;;;;;;19.18;38.60;100139.59;16124969;19;132320;-46
2023/01/08 04:09:37;;;;;;;0.38;0.20;;;;;;;19.17;38.44;100126.84;16124313;19;130033;-47
2023/01/08 04:14:59;;;;;;;0.73;0.30;;;;;;;19.16;38.90;100114.09;16121771;19;129898;-48
2023/01/08 04:20:21;;;;;;;1.60;0.10;;;;;;;19.15;38.86;100113.22;16117837;19;129300;-47
2023/01/08 04:25:43;;;;;;;1.48;0.35;;;;;;;19.13;38.54;100129.31;16121004;19;130278;-51
2023/01/08 04:31:08;;;;;;;2.00;0.20;;;;;;;19.14;38.59;100127.38;16119837;19;130480;-53
2023/01/08 04:36:30;;;;;;;0.40;0.20;;;;;;;19.12;38.79;100107.41;16119159;19;130204;-51
2023/01/08 04:41:52;;;;;;;0.73;0.30;;;;;;;19.12;38.81;100129.56;16120555;19;130763;-48
2023/01/08 04:47:14;;;;;;;1.30;0.30;;;;;;;19.10;39.05;100129.00;16118881;19;130342;-51
2023/01/08 04:52:36;;;;;;;1.08;0.20;;;;;;;19.08;38.76;100135.66;16117528;19;129696;-47
2023/01/08 04:57:57;;;;;;;0.73;0.20;;;;;;;19.07;38.95;100117.38;16120373;19;129479;-49
2023/01/08 05:03:19;;;;;;;0.63;0.20;;;;;;;19.06;38.58;100121.25;16116870;19;129818;-46
2023/01/08 05:08:41;;;;;;;0.55;0.28;;;;;;;19.05;38.63;100116.81;16117433;19;130280;-49
2023/01/08 05:14:03;;;;;;;0.15;0.10;;;;;;;19.04;38.72;100103.19;16117799;19;130479;-47
2023/01/08 05:19:25;;;;;;;0.40;0.25;;;;;;;19.04;38.92;100112.38;16117603;19;129685;-48
2023/01/08 05:24:46;;;;;;;1.25;0.30;;;;;;;19.03;38.86;100115.38;16117723;19;129498;-48
2023/01/08 05:30:09;;;;;;;0.30;0.10;;;;;;;19.01;38.80;100114.84;16118134;19;130272;-49
2023/01/08 05:35:30;;;;;;;0.32;0.30;;;;;;;19.01;38.62;100104.56;16117517;19;130494;-53
2023/01/08 05:40:53;;;;;;;0.55;0.20;;;;;;;18.99;38.93;100105.97;16118027;19;130621;-48
2023/01/08 05:46:14;;;;;;;0.10;0.10;;;;;;;18.97;39.06;100108.97;16117025;19;129214;-48
2023/01/08 05:51:36;;;;;;;0.63;0.20;;;;;;;18.97;38.64;100105.38;16115907;19;129315;-52
2023/01/08 05:56:58;;;;;;;0.40;0.20;;;;;;;18.97;38.79;100113.72;16116521;19;129058;-48
2023/01/08 06:02:20;;;;;;;0.95;0.10;;;;;;;18.95;39.02;100113.97;16123035;19;130412;-48
2023/01/08 06:07:41;;;;;;;0.93;0.25;;;;;;;18.93;38.71;100118.97;16131154;19;129614;-47
2023/01/08 06:13:07;;;;;;;1.50;0.20;;;;;;;18.93;38.92;100124.50;16132706;19;129379;-46
2023/01/08 06:18:30;;;;;;;0.32;0.10;;;;;;;18.91;39.14;100126.69;16130569;19;130926;-48
2023/01/08 06:23:51;;;;;;;0.15;0.10;;;;;;;18.89;38.73;100115.03;16131277;19;129917;-53
2023/01/08 06:29:13;;;;;;;0.70;0.17;;;;;;;18.88;38.52;100116.13;16129785;19;129983;-50
2023/01/08 06:34:35;;;;;;;0.22;0.10;;;;;;;18.88;38.86;100113.38;16128020;19;129372;-50
2023/01/08 06:39:56;;;;;;;1.58;0.13;;;;;;;18.92;38.92;100114.50;16127878;19;129101;-48
2023/01/08 06:45:18;;;;;;;0.38;0.20;;;;;;;19.20;38.75;100118.00;16128470;19;129301;-48
2023/01/08 06:50:40;;;;;;;0.32;0.20;;;;;;;19.50;38.27;100105.38;16126591;19;129636;-49
2023/01/08 06:56:03;;;;;;;0.70;0.30;;;;;;;19.75;37.92;100120.44;16125859;19;130133;-48
2023/01/08 07:01:25;;;;;;;0.45;0.17;;;;;;;19.84;37.61;100114.06;16126200;19;130439;-46
2023/01/08 07:06:47;;;;;;;0.22;0.20;;;;;;;19.95;37.63;100127.97;16127595;19;130598;-49
2023/01/08 07:12:12;;;;;;;0.90;0.30;;;;;;;20.05;37.31;100124.41;16126005;19;130519;-49
2023/01/08 07:17:34;;;;;;;0.93;0.30;;;;;;;20.09;37.31;100119.97;16123967;19;129596;-48
2023/01/08 07:23:03;;;;;;;1.10;0.40;;;;;;;20.08;37.65;100109.97;16127166;19;129940;-47
2023/01/08 07:28:25;;;;;;;0.90;0.30;;;;;;;20.03;37.74;100109.97;16125180;19;130304;-47
2023/01/08 07:33:47;;;;;;;0.60;0.25;;;;;;;19.97;37.48;100103.56;16125123;19;130980;-51
2023/01/08 07:39:09;;;;;;;0.40;0.20;;;;;;;19.89;37.87;100110.47;16124099;19;129580;-50
2023/01/08 07:44:30;;;;;;;0.40;0.20;;;;;;;19.85;37.50;100095.47;16120019;19;129701;-49
2023/01/08 07:49:52;;;;;;;0.52;0.32;;;;;;;19.77;38.03;100087.69;16125626;19;130545;-47
2023/01/08 07:55:14;;;;;;;2.80;0.43;;;;;;;19.67;37.77;100072.69;16122538;19;129209;-48
2023/01/08 08:00:36;;;;;;;4.15;0.50;;;;;;;19.57;37.48;100069.06;16123658;19;128963;-48
2023/01/08 08:06:00;;;;;;;7.43;1.00;;;;;;;19.51;37.51;100082.06;16126369;19;129786;-46
2023/01/08 08:11:21;;;;;;;5.35;0.60;;;;;;;19.45;37.51;100072.06;16122968;19;130504;-48
2023/01/08 08:16:43;;;;;;;3.10;0.50;;;;;;;19.37;37.69;100070.66;16120526;19;135574;-46
2023/01/08 08:22:05;;;;;;;3.30;0.52;;;;;;;19.32;38.04;100070.63;16120735;19;130092;-45
2023/01/08 08:27:27;;;;;;;3.75;0.90;;;;;;;19.28;37.67;100072.28;16118528;19;129607;-46
2023/01/08 08:32:49;;;;;;;2.35;0.60;;;;;;;19.24;38.10;100072.00;16121090;19;130434;-47
2023/01/08 08:38:10;;;;;;;4.07;0.68;;;;;;;19.20;37.94;100060.59;16122151;19;129592;-45
2023/01/08 08:43:32;;;;;;;10.40;0.90;;;;;;;19.15;37.84;100059.72;16119080;19;129285;-49
2023/01/08 08:48:54;;;;;;;4.68;0.90;;;;;;;19.11;38.42;100053.06;16118146;19;129776;-46
2023/01/08 08:54:16;;;;;;;6.78;0.93;;;;;;;19.05;38.49;100049.44;16116309;19;130624;-48
2023/01/08 08:59:38;;;;;;;8.23;1.10;;;;;;;19.02;38.43;100038.88;16116214;19;131588;-48
2023/01/08 09:04:59;;;;;;;6.28;1.08;;;;;;;18.97;38.32;100028.59;16117004;19;130591;-47
2023/01/08 09:10:22;;;;;;;6.93;1.00;;;;;;;18.93;38.21;100021.94;16119637;19;129595;-56
2023/01/08 09:15:44;;;;;;;6.50;1.27;;;;;;;;;;16119491;19;129334;-55
2023/01/08 09:21:07;;;;;;;8.05;0.90;;;;;;;18.89;38.60;100018.88;16119354;19;129351;-55
2023/01/08 09:26:29;;;;;;;6.88;1.25;;;;;;;18.86;38.52;100015.81;16119393;19;130008;-52
2023/01/08 09:31:51;;;;;;;6.70;0.90;;;;;;;18.84;38.65;100024.41;16118350;19;130270;-57
2023/01/08 09:37:13;;;;;;;5.22;0.80;;;;;;;18.83;38.49;100016.38;16127608;19;136198;-52
2023/01/08 09:42:35;;;;;;;2.45;0.73;;;;;;;18.81;38.48;100018.56;16127111;19;129102;-48
2023/01/08 09:48:00;;;;;;;7.90;0.80;;;;;;;18.96;38.89;100015.03;16131859;19;129917;-46
2023/01/08 09:53:23;;;;;;;4.60;0.60;;;;;;;19.16;38.99;100008.72;16129478;19;129854;-49
2023/01/08 09:58:49;;;;;;;4.68;1.00;;;;;;;19.41;38.59;99999.66;16131614;19;129178;-53
2023/01/08 10:04:23;;;;;;;5.18;0.77;;;;;;;19.63;38.37;99999.41;16127207;19;130164;-48
2023/01/08 10:09:45;;;;;;;3.88;0.68;;;;;;;19.80;38.74;99996.38;16131022;19;129989;-46
2023/01/08 10:15:13;;;;;;;4.30;0.93;;;;;;;19.96;38.41;99986.09;16130509;19;129767;-46
2023/01/08 10:20:35;;;;;;;4.28;0.95;;;;;;;20.02;38.38;99986.97;16125458;19;129954;-49
2023/01/08 10:25:59;;;;;;;4.07;0.95;;;;;;;20.02;38.44;99981.41;16124233;19;129986;-48
2023/01/08 10:31:21;;;;;;;6.38;1.08;;;;;;;19.98;37.99;99975.56;16125585;19;130195;-48
2023/01/08 10:36:43;;;;;;;4.07;0.73;;;;;;;19.95;37.93;99970.56;16128430;19;130694;-50
2023/01/08 10:42:06;;;;;;;6.35;0.75;;;;;;;19.89;37.87;99960.56;16127626;19;130869;-48
2023/01/08 10:47:33;;;;;;;2.75;0.70;;;;;;;19.84;37.97;99966.97;16129263;19;129457;-51
2023/01/08 10:53:00;;;;;;;7.90;1.25;;;;;;;19.77;38.28;99957.25;16121939;19;130482;-48
2023/01/08 10:58:21;;;;;;;9.07;1.67;;;;;;;19.69;38.34;99945.59;16123906;19;130128;-47
2023/01/08 11:03:49;;;;;;;8.73;0.95;;;;;;;19.64;38.02;99937.28;16125198;19;134519;-49
2023/01/08 11:09:25;;;;;;;4.68;0.65;;;;;;;19.60;38.29;99929.78;16119479;19;129586;-48
2023/01/08 11:14:46;;;;;;;2.63;0.60;;;;;;;19.53;38.49;99932.84;16125115;19;130784;-53
2023/01/08 11:20:29;;;;;;;4.82;0.90;;;;;;;19.50;38.02;99925.06;16124079;19;129755;-48
2023/01/08 11:25:55;;;;;;;2.47;0.60;;;;;;;19.47;38.10;99928.38;16124196;19;131389;-49
2023/01/08 11:31:24;;;;;;;4.35;1.15;;;;;;;19.43;38.44;99922.56;16122736;19;130249;-50
2023/01/08 11:36:53;;;;;;;7.63;0.88;;;;;;;19.40;38.56;99941.69;16126033;19;129613;-52
2023/01/08 11:42:15;;;;;;;3.08;0.68;;;;;;;19.36;38.33;99930.34;16118673;19;129487;-46
2023/01/08 11:47:58;;;;;;;3.55;0.75;;;;;;;19.33;38.52;99915.06;16121543;19;130102;-49
2023/01/08 11:53:26;;;;;;;3.42;0.57;;;;;;;19.31;38.56;99905.34;16121853;19;131052;-50
2023/01/08 11:59:03;;;;;;;6.70;1.30;;;;;;;19.28;38.70;99900.34;16123670;19;129618;-47
2023/01/08 12:04:41;;;;;;;5.95;0.90;;;;;;;19.25;39.02;99898.97;16115567;19;130942;-50
2023/01/08 12:11:01;;;;;;;2.92;0.70;;;;;;;19.22;38.98;99885.66;16119517;19;131331;-47
2023/01/08 12:16:28;;;;;;;7.13;1.00;;;;;;;19.22;38.74;99880.09;16111593;19;129978;-57
2023/01/08 12:22:03;;;;;;;11.50;0.98;;;;;;;19.23;38.82;99881.78;16108978;19;130182;-52
2023/01/08 12:27:41;;;;;;;6.05;0.70;;;;;;;19.33;38.40;99869.84;16107916;19;131353;-54
2023/01/08 12:33:47;;;;;;;6.63;0.70;;;;;;;19.40;38.36;99864.84;16111865;19;129111;-52
2023/01/08 12:39:12;;;;;;;6.78;0.77;;;;;;;19.44;38.10;99859.63;16111700;19;130407;-56
2023/01/08 12:44:36;;;;;;;4.07;0.75;;;;;;;19.46;37.77;99857.38;16120109;19;129580;-54
2023/01/08 12:50:15;;;;;;;8.50;0.88;;;;;;;19.45;37.61;99864.03;16124559;19;131057;-55
2023/01/08 12:55:54;;;;;;;3.92;0.80;;;;;;;19.42;37.98;99845.19;16124279;19;129332;-54
2023/01/08 13:01:24;;;;;;;4.78;1.10;;;;;;;19.38;37.95;99837.41;16122713;19;129629;-53
2023/01/08 13:06:55;;;;;;;2.40;0.60;;;;;;;19.34;37.75;99844.63;16119727;19;130178;-55
2023/01/08 13:12:30;;;;;;;4.88;0.60;;;;;;;19.30;37.71;99826.88;16129328;19;129869;-56
2023/01/08 13:18:02;;;;;;;2.00;0.60;;;;;;;19.26;37.43;99825.78;16134247;19;129710;-55
2023/01/08 13:23:29;;;;;;;4.63;0.90;;;;;;;19.23;37.16;99826.31;16132919;19;129747;-54
2023/01/08 13:28:51;;;;;;;3.22;0.90;;;;;;;19.18;37.12;99812.44;16136726;19;129738;-54
2023/01/08 13:34:36;;;;;;;3.25;0.80;;;;;;;19.16;37.08;99803.56;16134486;19;129329;-55
2023/01/08 13:39:57;;;;;;;5.10;1.20;;;;;;;19.12;37.50;99791.34;16136130;19;129982;-56
2023/01/08 13:45:19;;;;;;;4.05;0.93;;;;;;;19.10;37.03;99788.03;16135901;19;129763;-56
2023/01/08 13:50:45;;;;;;;3.38;0.60;;;;;;;19.05;36.76;99767.53;16136177;19;129307;-54
2023/01/08 13:56:08;;;;;;;4.95;0.70;;;;;;;19.06;36.85;99752.56;16135120;19;129499;-54
2023/01/08 14:01:30;;;;;;;2.92;0.80;;;;;;;19.18;36.78;99740.34;16135515;19;129498;-51
2023/01/08 14:06:52;;;;;;;1.83;0.45;;;;;;;19.33;36.58;99728.44;16135964;19;129134;-56
2023/01/08 14:12:20;;;;;;;2.25;0.60;;;;;;;19.47;36.21;99723.97;16134591;19;130015;-53
2023/01/08 14:17:43;;;;;;;1.20;0.55;;;;;;;19.58;36.06;99715.59;16137855;19;130236;-54
2023/01/08 14:23:19;;;;;;;3.85;0.55;;;;;;;19.69;36.18;99706.94;16129523;19;129547;-54
2023/01/08 14:28:50;;;;;;;2.30;0.50;;;;;;;19.78;36.04;99692.50;16134240;19;129800;-57
2023/01/08 14:34:13;;;;;;;1.85;0.77;;;;;;;19.83;36.21;99696.09;16130641;19;130283;-56
2023/01/08 14:39:37;;;;;;;1.15;0.45;;;;;;;19.89;35.98;99687.72;16134710;19;130380;-55
2023/01/08 14:45:15;;;;;;;1.88;0.40;;;;;;;19.92;35.58;99696.34;16131685;19;129353;-53
2023/01/08 14:50:42;;;;;;;1.17;0.40;;;;;;;19.89;35.52;99683.03;16133672;19;130105;-55
2023/01/08 14:56:06;;;;;;;2.38;0.40;;;;;;;19.84;35.78;99694.97;16131696;19;129456;-55
2023/01/08 15:01:32;;;;;;;1.88;0.63;;;;;;;19.80;35.62;99681.97;16132774;19;129239;-55
2023/01/08 15:07:21;;;;;;;1.80;0.57;;;;;;;19.75;35.86;99676.41;16130014;19;129628;-55
2023/01/08 15:12:43;;;;;;;3.05;0.82;;;;;;;19.63;35.71;99680.34;16132365;19;133126;-55
2023/01/08 15:18:07;;;;;;;1.65;0.47;;;;;;;19.57;35.94;99678.69;16128224;19;130464;-55
2023/01/08 15:23:50;;;;;;;2.20;0.85;;;;;;;19.50;35.96;99670.72;16131723;19;129595;-53
2023/01/08 15:29:17;;;;;;;1.98;0.68;;;;;;;19.43;35.84;99667.38;16127272;19;129279;-53
2023/01/08 15:34:43;;;;;;;2.10;0.50;;;;;;;19.35;35.79;99663.25;16120816;19;129896;-55
2023/01/08 15:40:07;;;;;;;2.22;0.50;;;;;;;19.29;36.16;99656.06;16121734;19;129839;-56
2023/01/08 15:45:33;;;;;;;1.60;0.45;;;;;;;19.24;36.23;99656.06;16125030;19;130554;-56
2023/01/08 15:50:56;;;;;;;2.65;0.70;;;;;;;19.19;36.13;99643.03;16125325;19;129671;-58
2023/01/08 15:56:19;;;;;;;4.70;0.40;;;;;;;19.19;36.03;99631.13;16124291;19;129987;-54
2023/01/08 16:01:41;;;;;;;5.25;0.55;;;;;;;19.17;36.09;99630.56;16125533;19;129458;-54
2023/01/08 16:07:02;;;;;;;3.38;0.50;;;;;;;19.16;36.16;99626.13;16124199;19;129264;-54
2023/01/08 16:12:24;;;;;;;5.93;0.80;;;;;;;19.16;36.12;99620.59;16122883;19;129714;-55
2023/01/08 16:17:46;;;;;;;11.05;1.00;;;;;;;19.17;36.43;99617.53;16122833;19;129445;-55
2023/01/08 16:23:08;;;;;;;2.47;0.75;;;;;;;19.19;36.13;99614.47;16123334;19;130497;-55
2023/01/08 16:28:29;;;;;;;4.93;0.60;;;;;;;19.30;35.83;99605.03;16119028;19;129375;-55
2023/01/08 16:33:51;;;;;;;1.85;0.40;;;;;;;19.48;35.94;99602.75;16119462;19;130200;-57
2023/01/08 16:39:13;;;;;;;1.85;0.43;;;;;;;19.67;35.61;99598.22;16123404;19;130319;-57
2023/01/08 16:44:35;;;;;;;3.80;0.57;;;;;;;19.82;35.77;99579.78;16119897;19;130214;-55
2023/01/08 16:49:57;;;;;;;3.72;0.60;;;;;;;19.90;35.38;99573.66;16119548;19;130280;-56
2023/01/08 16:55:19;;;;;;;5.00;0.80;;;;;;;19.92;35.60;99565.88;16120883;19;129429;-55
2023/01/08 17:00:41;;;;;;;2.42;0.60;;;;;;;19.93;35.63;99569.47;16123575;19;129428;-56
2023/01/08 17:06:05;;;;;;;2.58;0.65;;;;;;;19.87;35.72;99563.13;16119496;19;130339;-56
2023/01/08 17:11:26;;;;;;;3.50;0.55;;;;;;;19.82;35.87;99555.66;16122474;19;130052;-56
2023/01/08 17:16:48;;;;;;;4.03;0.52;;;;;;;19.77;35.56;99552.09;16121000;19;129762;-56
2023/01/08 17:22:10;;;;;;;1.70;0.55;;;;;;;19.69;35.95;99551.56;16118146;19;130827;-53
2023/01/08 17:27:35;;;;;;;1.83;0.63;;;;;;;19.62;35.97;99536.38;16121261;19;130294;-57
2023/01/08 17:32:56;;;;;;;3.60;0.70;;;;;;;19.56;36.37;99531.97;16119323;19;129714;-56
2023/01/08 17:38:18;;;;;;;5.20;0.63;;;;;;;19.60;36.41;99527.50;16112949;19;130760;-56
2023/01/08 17:43:40;;;;;;;4.80;0.70;;;;;;;19.66;36.75;99516.09;16116154;19;129532;-55
2023/01/08 17:49:03;;;;;;;3.10;0.68;;;;;;;19.78;36.96;99510.16;16118229;19;129025;-57
2023/01/08 17:54:24;;;;;;;2.25;0.73;;;;;;;19.87;36.99;99513.16;16114913;19;129354;-57
2023/01/08 17:59:47;;;;;;;2.47;0.73;;;;;;;19.95;36.96;99495.88;16129602;19;130191;-57
2023/01/08 18:05:09;;;;;;;4.07;0.55;;;;;;;20.03;36.89;99472.25;16130213;19;129792;-57
2023/01/08 18:10:31;;;;;;;1.98;0.52;;;;;;;20.11;36.78;99473.59;16127574;19;129501;-57
2023/01/08 18:15:53;;;;;;;1.70;0.80;;;;;;;20.17;37.18;99477.97;16133003;19;130457;-56
2023/01/08 18:21:14;;;;;;;6.05;0.80;;;;;;;20.20;36.96;99459.91;16127399;19;130501;-57
2023/01/08 18:26:37;;;;;;;18.08;1.45;;;;;;;20.20;37.82;99459.91;16128644;19;130377;-56
2023/01/08 18:31:59;;;;;;;21.67;1.48;;;;;;;20.32;37.79;99454.78;16127987;19;130485;-55
2023/01/08 18:37:22;;;;;;;12.23;1.55;;;;;;;20.55;37.48;99455.94;16128348;19;130973;-56
2023/01/08 18:42:46;;;;;;;8.75;1.70;;;;;;;20.81;37.57;99449.25;16128819;19;130509;-56
2023/01/08 18:48:08;;;;;;;11.00;1.05;;;;;;;21.02;37.67;99444.25;16127255;19;129667;-54
2023/01/08 18:53:33;;;;;;;9.45;1.10;;;;;;;21.16;37.52;99436.84;16127584;19;130745;-59
2023/01/08 18:58:55;;;;;;;;;;;;;;;21.22;37.64;99432.84;16128064;19;129439;-56
2023/01/08 19:04:17;;;;;;;19.10;2.78;;;;;;;21.29;37.21;99437.22;16126203;19;128879;-54
2023/01/08 19:09:39;;;;;;;21.30;1.98;;;;;;;21.30;37.52;99419.38;16126217;19;129428;-52
2023/01/08 19:15:01;;;;;;;19.10;2.25;;;;;;;21.33;37.70;99418.78;16125502;19;129155;-56
2023/01/08 19:20:23;;;;;;;16.33;2.20;;;;;;;21.38;37.61;99399.25;16123268;19;130135;-55
2023/01/08 19:25:44;;;;;;;17.73;1.50;;;;;;;21.39;37.78;99394.50;16124690;19;130034;-54
2023/01/08 19:31:10;;;;;;;9.25;1.67;;;;;;;21.37;37.62;99378.09;16121210;19;129842;-54
2023/01/08 19:36:33;;;;;;;9.88;1.20;;;;;;;21.34;37.72;99370.38;16123074;19;129734;-52
2023/01/08 19:47:36;;;;;;;5.15;1.35;;;;;;;21.31;37.57;99357.06;16123081;19;129595;-55
2023/01/08 19:52:58;;;;;;;13.85;1.30;;;;;;;21.28;37.66;99346.56;16121729;19;130360;-58
2023/01/08 19:58:22;;;;;;;16.33;1.90;;;;;;;21.27;37.74;99342.13;16122953;19;130209;-56
2023/01/08 20:03:44;;;;;;;10.00;1.33;;;;;;;21.35;38.01;99333.06;16122552;19;130449;-56
2023/01/08 20:09:07;;;;;;;8.20;1.42;;;;;;;21.46;37.88;99323.41;16121288;19;129355;-54
2023/01/08 20:14:30;;;;;;;9.40;1.25;;;;;;;21.63;38.00;99314.53;16120390;19;129646;-56
2023/01/08 20:19:51;;;;;;;13.35;1.33;;;;;;;21.80;37.35;99321.47;16120763;19;130031;-52
2023/01/08 20:25:13;;;;;;;7.10;1.13;;;;;;;21.94;37.38;99313.97;16119112;19;129391;-54
2023/01/08 20:30:35;;;;;;;7.78;1.05;;;;;;;22.07;37.35;99303.94;16121871;19;129407;-52
2023/01/08 20:35:57;;;;;;;7.00;1.50;;;;;;;22.18;37.40;99299.00;16120263;19;129776;-56
2023/01/08 20:41:19;;;;;;;6.05;1.27;;;;;;;22.29;37.17;99288.50;16118759;19;130570;-55
2023/01/08 20:46:41;;;;;;;9.32;1.45;;;;;;;22.38;36.82;99294.16;16118971;19;129565;-58
2023/01/08 20:52:03;;;;;;;7.35;0.95;;;;;;;22.46;37.01;99296.22;16119216;19;134296;-57
2023/01/08 20:57:26;;;;;;;8.30;0.90;;;;;;;22.52;36.81;99289.41;16115998;19;129177;-56
2023/01/08 21:02:48;;;;;;;5.63;1.00;;;;;;;22.58;36.62;99278.94;16119234;19;130415;-57
2023/01/08 21:08:10;;;;;;;5.13;0.75;;;;;;;22.61;36.91;99286.69;16116463;19;129846;-54
2023/01/08 21:13:33;;;;;;;7.47;0.90;;;;;;;22.58;36.73;99270.59;16116377;19;130294;-56
2023/01/08 21:18:56;;;;;;;4.85;1.15;;;;;;;22.48;37.17;99268.84;16116746;19;129774;-57
2023/01/08 21:24:19;;;;;;;5.35;0.73;;;;;;;22.34;36.91;99270.88;16115992;19;130576;-53
2023/01/08 21:29:40;;;;;;;6.78;1.10;;;;;;;22.16;36.70;99273.41;16117598;19;129570;-57
2023/01/08 21:35:02;;;;;;;9.88;1.40;;;;;;;21.96;36.78;99269.09;16131025;19;129643;-54
2023/01/08 21:40:24;;;;;;;4.78;1.00;;;;;;;21.77;36.70;99258.91;16135509;19;129346;-53
2023/01/08 21:45:56;;;;;;;5.88;1.20;;;;;;;21.62;36.80;99260.00;16134380;19;130227;-52
2023/01/08 21:56:58;;;;;;;7.85;1.10;;;;;;;21.34;37.30;99310.00;16132518;19;130991;-55
2023/01/08 22:02:22;;;;;;;3.75;1.00;;;;;;;21.22;37.58;99302.13;16124698;19;130343;-54
2023/01/08 22:07:44;;;;;;;6.03;0.80;;;;;;;21.12;37.55;99287.56;16125144;19;129547;-54
2023/01/08 22:13:06;;;;;;;3.13;0.73;;;;;;;21.01;37.56;99284.13;16129660;19;130597;-54
2023/01/08 22:18:28;;;;;;;3.80;1.10;;;;;;;20.90;37.40;99277.91;16132449;19;129719;-55
2023/01/08 22:23:50;;;;;;;5.53;0.70;;;;;;;20.83;37.75;99289.41;16131750;19;129943;-50
2023/01/08 22:29:12;;;;;;;3.53;0.63;;;;;;;20.76;37.99;99288.97;16131135;19;130100;-55
2023/01/08 22:34:34;;;;;;;4.03;0.70;;;;;;;20.70;37.63;99301.22;16132671;19;129516;-54
2023/01/08 22:39:56;;;;;;;2.72;0.40;;;;;;;20.62;37.95;99291.59;16129741;19;129536;-55
2023/01/08 22:45:17;;;;;;;3.03;0.63;;;;;;;20.54;37.84;99298.69;16125750;19;129899;-51
2023/01/08 22:50:39;;;;;;;1.92;0.77;;;;;;;20.47;38.13;99303.78;16128832;19;130861;-51
2023/01/08 22:56:10;;;;;;;3.28;0.50;;;;;;;20.42;38.49;99299.13;16129607;19;129644;-56
2023/01/08 23:01:32;;;;;;;1.20;0.60;;;;;;;20.36;38.48;99314.22;16126076;19;129642;-48
2023/01/08 23:06:54;;;;;;;0.63;0.35;;;;;;;20.32;38.36;99323.41;16126585;19;129241;-51
2023/01/08 23:12:16;;;;;;;1.92;0.50;;;;;;;20.27;38.26;99333.47;16127039;19;130811;-55
2023/01/08 23:17:37;;;;;;;1.83;0.40;;;;;;;20.23;38.35;99335.19;16128095;19;129860;-54
2023/01/08 23:23:12;;;;;;;1.73;0.63;;;;;;;20.18;38.65;99348.28;16128526;19;130088;-52
2023/01/08 23:28:34;;;;;;;1.55;0.40;;;;;;;20.12;38.45;99340.00;16127472;19;131282;-56
2023/01/08 23:33:57;;;;;;;2.08;0.35;;;;;;;20.09;38.40;99339.78;16126182;19;130420;-62
2023/01/08 23:39:19;;;;;;;1.58;0.45;;;;;;;20.05;38.35;99341.50;16127516;19;130485;-60
2023/01/08 23:44:41;;;;;;;1.60;0.50;;;;;;;20.01;38.76;99352.34;16129915;19;130074;-63
2023/01/08 23:50:03;;;;;;;0.80;0.20;;;;;;;19.98;38.38;99347.38;16131200;19;130338;-56
2023/01/08 23:55:25;;;;;;;0.70;0.40;;;;;;;19.94;38.56;99352.66;16123235;19;129555;-54
